sensor_id;sensor_type;location;lat;lon;timestamp;pressure;altitude;pressure_sealevel;temperature;humidity
20656;BME280;10487;53.320;8.672;2023-05-21T00:01:34;101855.97;;;11.29;46.57
20656;BME280;10487;53.320;8.672;2023-05-21T00:04:39;101853.56;;;11.25;46.31
20656;BME280;10487;53.320;8.672;2023-05-21T00:07:41;101851.25;;;11.18;46.50
20656;BME280;10487;53.320;8.672;2023-05-21T00:10:43;101851.53;;;11.14;46.51
20656;BME280;10487;53.320;8.672;2023-05-21T00:13:45;101845.41;;;11.12;46.54
20656;BME280;10487;53.320;8.672;2023-05-21T00:16:46;101841.00;;;11.11;46.55
20656;BME280;10487;53.320;8.672;2023-05-21T00:19:48;101835.84;;;11.08;46.62
20656;BME280;10487;53.320;8.672;2023-05-21T00:22:50;101833.38;;;11.05;46.52
20656;BME280;10487;53.320;8.672;2023-05-21T00:25:52;101846.91;;;11.02;46.49
20656;BME280;10487;53.320;8.672;2023-05-21T00:28:53;101840.78;;;11.00;46.70
20656;BME280;10487;53.320;8.672;2023-05-21T00:31:55;101841.91;;;10.96;46.57
20656;BME280;10487;53.320;8.672;2023-05-21T00:34:57;101842.06;;;10.93;46.51
20656;BME280;10487;53.320;8.672;2023-05-21T00:37:59;101826.25;;;10.90;46.90
20656;BME280;10487;53.320;8.672;2023-05-21T00:41:01;101834.34;;;10.88;46.54
20656;BME280;10487;53.320;8.672;2023-05-21T00:44:03;101829.25;;;10.84;46.72
20656;BME280;10487;53.320;8.672;2023-05-21T00:47:05;101822.28;;;10.81;46.69
20656;BME280;10487;53.320;8.672;2023-05-21T00:50:07;101826.75;;;10.81;46.74
20656;BME280;10487;53.320;8.672;2023-05-21T00:53:09;101822.56;;;10.77;46.56
20656;BME280;10487;53.320;8.672;2023-05-21T00:56:11;101813.03;;;10.73;46.83
20656;BME280;10487;53.320;8.672;2023-05-21T00:59:15;101816.78;;;10.69;46.77
20656;BME280;10487;53.320;8.672;2023-05-21T01:02:17;101816.97;;;10.66;46.95
20656;BME280;10487;53.320;8.672;2023-05-21T01:05:19;101815.31;;;10.63;46.84
20656;BME280;10487;53.320;8.672;2023-05-21T01:08:22;101810.19;;;10.60;46.80
20656;BME280;10487;53.320;8.672;2023-05-21T01:11:51;101805.78;;;10.59;46.96
20656;BME280;10487;53.320;8.672;2023-05-21T01:14:52;101806.81;;;10.57;46.88
20656;BME280;10487;53.320;8.672;2023-05-21T01:17:53;101806.13;;;10.53;46.91
20656;BME280;10487;53.320;8.672;2023-05-21T01:20:56;101805.34;;;10.51;46.89
20656;BME280;10487;53.320;8.672;2023-05-21T01:23:57;101804.69;;;10.47;47.06
20656;BME280;10487;53.320;8.672;2023-05-21T01:27:01;101807.50;;;10.44;47.00
20656;BME280;10487;53.320;8.672;2023-05-21T01:30:03;101797.84;;;10.42;47.00
20656;BME280;10487;53.320;8.672;2023-05-21T01:33:24;101789.16;;;10.38;47.18
20656;BME280;10487;53.320;8.672;2023-05-21T01:36:33;101784.94;;;10.34;47.08
20656;BME280;10487;53.320;8.672;2023-05-21T01:39:43;101781.66;;;10.29;47.10
20656;BME280;10487;53.320;8.672;2023-05-21T01:42:47;101781.16;;;10.23;47.19
20656;BME280;10487;53.320;8.672;2023-05-21T01:45:52;101777.69;;;10.21;47.11
20656;BME280;10487;53.320;8.672;2023-05-21T01:48:55;101779.84;;;10.14;47.24
20656;BME280;10487;53.320;8.672;2023-05-21T01:51:57;101783.66;;;10.10;47.21
20656;BME280;10487;53.320;8.672;2023-05-21T01:54:59;101780.44;;;10.04;47.39
20656;BME280;10487;53.320;8.672;2023-05-21T01:58:00;101776.34;;;9.98;47.30
20656;BME280;10487;53.320;8.672;2023-05-21T02:01:03;101786.28;;;9.95;47.42
20656;BME280;10487;53.320;8.672;2023-05-21T02:04:05;101786.56;;;9.90;47.28
20656;BME280;10487;53.320;8.672;2023-05-21T02:07:07;101784.03;;;9.87;47.38
20656;BME280;10487;53.320;8.672;2023-05-21T02:10:10;101778.88;;;9.84;47.40
20656;BME280;10487;53.320;8.672;2023-05-21T02:13:12;101777.31;;;9.80;47.40
20656;BME280;10487;53.320;8.672;2023-05-21T02:16:14;101779.28;;;9.76;47.35
20656;BME280;10487;53.320;8.672;2023-05-21T02:19:16;101769.66;;;9.74;47.54
20656;BME280;10487;53.320;8.672;2023-05-21T02:22:18;101776.97;;;9.70;47.47
20656;BME280;10487;53.320;8.672;2023-05-21T02:25:20;101771.78;;;9.67;47.44
20656;BME280;10487;53.320;8.672;2023-05-21T02:28:21;101768.41;;;9.64;47.58
20656;BME280;10487;53.320;8.672;2023-05-21T02:31:24;101771.28;;;9.61;47.45
20656;BME280;10487;53.320;8.672;2023-05-21T02:34:25;101766.97;;;9.58;47.46
20656;BME280;10487;53.320;8.672;2023-05-21T02:37:27;101768.81;;;9.56;47.59
20656;BME280;10487;53.320;8.672;2023-05-21T02:40:29;101761.84;;;9.54;47.55
20656;BME280;10487;53.320;8.672;2023-05-21T02:43:31;101763.69;;;9.53;47.63
20656;BME280;10487;53.320;8.672;2023-05-21T02:46:32;101773.47;;;9.53;47.63
20656;BME280;10487;53.320;8.672;2023-05-21T02:49:34;101760.31;;;9.50;47.60
20656;BME280;10487;53.320;8.672;2023-05-21T02:52:36;101755.94;;;9.49;47.67
20656;BME280;10487;53.320;8.672;2023-05-21T02:55:39;101757.81;;;9.47;47.61
20656;BME280;10487;53.320;8.672;2023-05-21T02:58:42;101755.13;;;9.47;47.74
20656;BME280;10487;53.320;8.672;2023-05-21T03:01:43;101760.47;;;9.47;47.69
20656;BME280;10487;53.320;8.672;2023-05-21T03:04:45;101763.13;;;9.47;47.62
20656;BME280;10487;53.320;8.672;2023-05-21T03:07:48;101753.50;;;9.44;47.79
20656;BME280;10487;53.320;8.672;2023-05-21T03:10:49;101752.72;;;9.42;47.68
20656;BME280;10487;53.320;8.672;2023-05-21T03:13:51;101745.75;;;9.40;47.82
20656;BME280;10487;53.320;8.672;2023-05-21T03:16:52;101739.81;;;9.35;47.92
20656;BME280;10487;53.320;8.672;2023-05-21T03:19:55;101746.28;;;9.29;47.93
20656;BME280;10487;53.320;8.672;2023-05-21T03:22:57;101741.19;;;9.24;47.94
20656;BME280;10487;53.320;8.672;2023-05-21T03:25:58;101742.31;;;9.20;48.14
20656;BME280;10487;53.320;8.672;2023-05-21T03:29:01;101739.81;;;9.17;48.16
20656;BME280;10487;53.320;8.672;2023-05-21T03:32:03;101741.69;;;9.15;48.22
20656;BME280;10487;53.320;8.672;2023-05-21T03:35:05;101738.25;;;9.13;48.27
20656;BME280;10487;53.320;8.672;2023-05-21T03:38:06;101741.94;;;9.11;48.21
20656;BME280;10487;53.320;8.672;2023-05-21T03:41:09;101732.31;;;9.08;48.39
20656;BME280;10487;53.320;8.672;2023-05-21T03:44:11;101729.66;;;9.08;48.29
20656;BME280;10487;53.320;8.672;2023-05-21T03:47:13;101724.38;;;9.07;48.38
20656;BME280;10487;53.320;8.672;2023-05-21T03:50:14;101719.16;;;9.05;48.28
20656;BME280;10487;53.320;8.672;2023-05-21T03:53:16;101724.47;;;9.05;48.52
20656;BME280;10487;53.320;8.672;2023-05-21T03:56:18;101719.25;;;9.04;48.39
20656;BME280;10487;53.320;8.672;2023-05-21T03:59:19;101723.75;;;9.02;48.54
20656;BME280;10487;53.320;8.672;2023-05-21T04:02:21;101726.50;;;9.00;48.60
20656;BME280;10487;53.320;8.672;2023-05-21T04:05:23;101736.28;;;9.00;48.67
20656;BME280;10487;53.320;8.672;2023-05-21T04:08:25;101737.16;;;9.00;48.68
20656;BME280;10487;53.320;8.672;2023-05-21T04:11:27;101734.41;;;9.02;48.65
20656;BME280;10487;53.320;8.672;2023-05-21T04:14:28;101732.59;;;9.02;48.71
20656;BME280;10487;53.320;8.672;2023-05-21T04:17:30;101727.22;;;9.04;48.83
20656;BME280;10487;53.320;8.672;2023-05-21T04:20:31;101733.31;;;9.06;48.60
20656;BME280;10487;53.320;8.672;2023-05-21T04:23:33;101731.53;;;9.06;48.64
20656;BME280;10487;53.320;8.672;2023-05-21T04:26:37;101736.84;;;9.06;48.72
20656;BME280;10487;53.320;8.672;2023-05-21T04:29:42;101742.19;;;9.06;48.94
20656;BME280;10487;53.320;8.672;2023-05-21T04:32:43;101745.78;;;9.05;48.73
20656;BME280;10487;53.320;8.672;2023-05-21T04:35:46;101751.00;;;9.07;48.88
20656;BME280;10487;53.320;8.672;2023-05-21T04:38:50;101749.22;;;9.07;48.89
20656;BME280;10487;53.320;8.672;2023-05-21T04:41:52;101746.41;;;9.10;49.04
20656;BME280;10487;53.320;8.672;2023-05-21T04:44:55;101739.19;;;9.12;48.86
20656;BME280;10487;53.320;8.672;2023-05-21T04:47:59;101736.47;;;9.14;48.98
20656;BME280;10487;53.320;8.672;2023-05-21T04:51:01;101734.56;;;9.16;48.97
20656;BME280;10487;53.320;8.672;2023-05-21T04:54:06;101737.09;;;9.19;48.88
20656;BME280;10487;53.320;8.672;2023-05-21T04:57:08;101741.19;;;9.24;48.89
20656;BME280;10487;53.320;8.672;2023-05-21T05:00:10;101737.63;;;9.25;48.99
20656;BME280;10487;53.320;8.672;2023-05-21T05:03:12;101728.66;;;9.26;49.03
20656;BME280;10487;53.320;8.672;2023-05-21T05:06:14;101732.97;;;9.29;48.99
20656;BME280;10487;53.320;8.672;2023-05-21T05:09:17;101734.69;;;9.30;48.98
20656;BME280;10487;53.320;8.672;2023-05-21T05:12:19;101732.84;;;9.32;48.97
20656;BME280;10487;53.320;8.672;2023-05-21T05:15:21;101729.25;;;9.33;49.12
20656;BME280;10487;53.320;8.672;2023-05-21T05:18:22;101727.47;;;9.34;49.02
20656;BME280;10487;53.320;8.672;2023-05-21T05:21:24;101720.25;;;9.36;49.11
20656;BME280;10487;53.320;8.672;2023-05-21T05:24:25;101717.41;;;9.39;49.20
20656;BME280;10487;53.320;8.672;2023-05-21T05:27:27;101713.72;;;9.41;49.11
20656;BME280;10487;53.320;8.672;2023-05-21T05:30:29;101708.22;;;9.44;49.13
20656;BME280;10487;53.320;8.672;2023-05-21T05:33:30;101707.13;;;9.48;49.18
20656;BME280;10487;53.320;8.672;2023-05-21T05:36:32;101707.81;;;9.52;49.25
20656;BME280;10487;53.320;8.672;2023-05-21T05:39:34;101702.22;;;9.56;49.20
20656;BME280;10487;53.320;8.672;2023-05-21T05:42:35;101698.53;;;9.59;49.20
20656;BME280;10487;53.320;8.672;2023-05-21T05:45:37;101706.28;;;9.63;49.24
20656;BME280;10487;53.320;8.672;2023-05-21T05:48:39;101702.50;;;9.67;49.25
20656;BME280;10487;53.320;8.672;2023-05-21T05:51:41;101698.91;;;9.68;49.29
20656;BME280;10487;53.320;8.672;2023-05-21T05:54:42;101704.03;;;9.71;49.31
20656;BME280;10487;53.320;8.672;2023-05-21T05:57:44;101704.75;;;9.75;49.31
20656;BME280;10487;53.320;8.672;2023-05-21T06:00:45;101709.91;;;9.78;49.48
20656;BME280;10487;53.320;8.672;2023-05-21T06:03:47;101702.53;;;9.83;49.36
20656;BME280;10487;53.320;8.672;2023-05-21T06:06:49;101699.34;;;9.92;49.31
20656;BME280;10487;53.320;8.672;2023-05-21T06:09:51;101704.34;;;9.98;49.32
20656;BME280;10487;53.320;8.672;2023-05-21T06:12:52;101695.06;;;10.05;49.43
20656;BME280;10487;53.320;8.672;2023-05-21T06:15:54;101697.44;;;10.10;49.20
20656;BME280;10487;53.320;8.672;2023-05-21T06:18:56;101683.84;;;10.14;49.42
20656;BME280;10487;53.320;8.672;2023-05-21T06:21:58;101689.78;;;10.19;49.39
20656;BME280;10487;53.320;8.672;2023-05-21T06:24:59;101686.84;;;10.24;49.30
20656;BME280;10487;53.320;8.672;2023-05-21T06:28:01;101683.84;;;10.30;49.39
20656;BME280;10487;53.320;8.672;2023-05-21T06:31:03;101685.28;;;10.35;49.38
20656;BME280;10487;53.320;8.672;2023-05-21T06:34:04;101695.69;;;10.40;49.38
20656;BME280;10487;53.320;8.672;2023-05-21T06:37:06;101689.19;;;10.45;49.22
20656;BME280;10487;53.320;8.672;2023-05-21T06:40:08;101692.50;;;10.49;49.68
20656;BME280;10487;53.320;8.672;2023-05-21T06:43:10;101698.34;;;10.55;49.54
20656;BME280;10487;53.320;8.672;2023-05-21T06:46:12;101691.78;;;10.61;49.57
20656;BME280;10487;53.320;8.672;2023-05-21T06:49:13;101700.31;;;10.68;49.38
20656;BME280;10487;53.320;8.672;2023-05-21T06:52:15;101702.03;;;10.83;49.69
20656;BME280;10487;53.320;8.672;2023-05-21T06:55:17;101698.09;;;10.90;49.45
20656;BME280;10487;53.320;8.672;2023-05-21T06:58:18;101695.22;;;10.93;49.64
20656;BME280;10487;53.320;8.672;2023-05-21T07:01:20;101693.13;;;10.98;49.62
20656;BME280;10487;53.320;8.672;2023-05-21T07:04:25;101692.88;;;11.02;49.51
20656;BME280;10487;53.320;8.672;2023-05-21T07:07:27;101704.13;;;11.07;49.58
20656;BME280;10487;53.320;8.672;2023-05-21T07:10:28;101696.78;;;11.11;49.61
20656;BME280;10487;53.320;8.672;2023-05-21T07:13:30;101693.75;;;11.17;49.61
20656;BME280;10487;53.320;8.672;2023-05-21T07:16:31;101693.44;;;11.22;49.56
20656;BME280;10487;53.320;8.672;2023-05-21T07:19:33;101696.59;;;11.28;49.60
20656;BME280;10487;53.320;8.672;2023-05-21T07:22:37;101687.25;;;11.35;49.71
20656;BME280;10487;53.320;8.672;2023-05-21T07:25:39;101687.81;;;11.40;49.62
20656;BME280;10487;53.320;8.672;2023-05-21T07:28:41;101690.00;;;11.48;49.80
20656;BME280;10487;53.320;8.672;2023-05-21T07:31:42;101694.91;;;11.55;49.65
20656;BME280;10487;53.320;8.672;2023-05-21T07:34:44;101676.59;;;11.63;49.67
20656;BME280;10487;53.320;8.672;2023-05-21T07:37:46;101688.41;;;11.73;49.73
20656;BME280;10487;53.320;8.672;2023-05-21T07:40:48;101686.13;;;11.81;49.67
20656;BME280;10487;53.320;8.672;2023-05-21T07:43:50;101683.69;;;11.91;49.56
20656;BME280;10487;53.320;8.672;2023-05-21T07:46:51;101681.41;;;11.99;49.55
20656;BME280;10487;53.320;8.672;2023-05-21T07:49:53;101675.44;;;12.08;49.55
20656;BME280;10487;53.320;8.672;2023-05-21T07:52:55;101669.47;;;12.17;49.79
20656;BME280;10487;53.320;8.672;2023-05-21T07:55:58;101667.03;;;12.27;49.72
20656;BME280;10487;53.320;8.672;2023-05-21T07:58:59;101665.69;;;12.34;49.50
20656;BME280;10487;53.320;8.672;2023-05-21T08:02:01;101666.13;;;12.40;49.41
20656;BME280;10487;53.320;8.672;2023-05-21T08:05:03;101665.72;;;12.46;49.54
20656;BME280;10487;53.320;8.672;2023-05-21T08:08:05;101658.19;;;12.53;49.65
20656;BME280;10487;53.320;8.672;2023-05-21T08:11:07;101665.78;;;12.59;49.68
20656;BME280;10487;53.320;8.672;2023-05-21T08:14:08;101659.28;;;12.63;49.70
20656;BME280;10487;53.320;8.672;2023-05-21T08:17:10;101655.31;;;12.69;49.57
20656;BME280;10487;53.320;8.672;2023-05-21T08:20:13;101656.69;;;12.74;49.95
20656;BME280;10487;53.320;8.672;2023-05-21T08:23:15;101653.63;;;12.80;49.78
20656;BME280;10487;53.320;8.672;2023-05-21T08:26:17;101650.28;;;12.89;49.64
20656;BME280;10487;53.320;8.672;2023-05-21T08:29:18;101647.75;;;13.00;49.62
20656;BME280;10487;53.320;8.672;2023-05-21T08:32:21;101665.84;;;13.09;49.62
20656;BME280;10487;53.320;8.672;2023-05-21T08:35:23;101664.56;;;13.15;49.75
20656;BME280;10487;53.320;8.672;2023-05-21T08:38:25;101661.34;;;13.23;49.94
20656;BME280;10487;53.320;8.672;2023-05-21T08:41:32;101658.00;;;13.32;49.94
20656;BME280;10487;53.320;8.672;2023-05-21T08:44:36;101661.13;;;13.38;49.55
20656;BME280;10487;53.320;8.672;2023-05-21T08:47:42;101653.59;;;13.43;49.62
20656;BME280;10487;53.320;8.672;2023-05-21T08:50:45;101652.34;;;13.49;49.92
20656;BME280;10487;53.320;8.672;2023-05-21T08:53:47;101648.25;;;13.56;49.59
20656;BME280;10487;53.320;8.672;2023-05-21T08:56:51;101650.50;;;13.62;49.81
20656;BME280;10487;53.320;8.672;2023-05-21T08:59:53;101647.25;;;13.69;49.61
20656;BME280;10487;53.320;8.672;2023-05-21T09:02:55;101643.03;;;13.78;49.63
20656;BME280;10487;53.320;8.672;2023-05-21T09:05:58;101637.75;;;13.89;49.62
20656;BME280;10487;53.320;8.672;2023-05-21T09:09:05;101633.56;;;13.98;49.71
20656;BME280;10487;53.320;8.672;2023-05-21T09:12:10;101637.22;;;14.08;49.61
20656;BME280;10487;53.320;8.672;2023-05-21T09:15:11;101639.25;;;14.17;49.76
20656;BME280;10487;53.320;8.672;2023-05-21T09:18:13;101639.53;;;14.25;49.52
20656;BME280;10487;53.320;8.672;2023-05-21T09:21:23;101643.47;;;14.32;49.61
20656;BME280;10487;53.320;8.672;2023-05-21T09:24:29;101639.38;;;14.39;49.84
20656;BME280;10487;53.320;8.672;2023-05-21T09:27:35;101632.44;;;14.48;49.63
20656;BME280;10487;53.320;8.672;2023-05-21T09:30:36;101640.31;;;14.62;49.71
20656;BME280;10487;53.320;8.672;2023-05-21T09:33:46;101634.88;;;14.74;49.68
20656;BME280;10487;53.320;8.672;2023-05-21T09:36:48;101638.56;;;14.84;49.85
20656;BME280;10487;53.320;8.672;2023-05-21T09:39:50;101642.09;;;14.96;49.77
20656;BME280;10487;53.320;8.672;2023-05-21T09:42:53;101641.75;;;15.12;49.65
20656;BME280;10487;53.320;8.672;2023-05-21T09:45:56;101636.50;;;15.21;49.63
20656;BME280;10487;53.320;8.672;2023-05-21T09:49:01;101639.13;;;15.34;49.70
20656;BME280;10487;53.320;8.672;2023-05-21T09:52:03;101636.66;;;15.42;49.56
20656;BME280;10487;53.320;8.672;2023-05-21T09:55:05;101636.78;;;15.51;49.65
20656;BME280;10487;53.320;8.672;2023-05-21T09:58:09;101631.75;;;15.58;49.60
20656;BME280;10487;53.320;8.672;2023-05-21T10:01:11;101630.16;;;15.66;49.72
20656;BME280;10487;53.320;8.672;2023-05-21T10:04:12;101625.16;;;15.73;49.64
20656;BME280;10487;53.320;8.672;2023-05-21T10:07:19;101619.63;;;15.86;49.64
20656;BME280;10487;53.320;8.672;2023-05-21T10:10:29;101615.28;;;15.94;49.65
20656;BME280;10487;53.320;8.672;2023-05-21T10:13:36;101609.28;;;16.02;49.83
20656;BME280;10487;53.320;8.672;2023-05-21T10:16:40;101609.78;;;16.07;49.57
20656;BME280;10487;53.320;8.672;2023-05-21T10:19:43;101601.94;;;16.15;49.47
20656;BME280;10487;53.320;8.672;2023-05-21T10:22:47;101602.16;;;16.23;49.68
20656;BME280;10487;53.320;8.672;2023-05-21T10:25:51;101601.38;;;16.32;49.54
20656;BME280;10487;53.320;8.672;2023-05-21T10:28:55;101602.03;;;16.45;49.53
20656;BME280;10487;53.320;8.672;2023-05-21T10:31:59;101598.44;;;16.56;49.54
20656;BME280;10487;53.320;8.672;2023-05-21T10:35:02;101595.19;;;16.62;49.30
20656;BME280;10487;53.320;8.672;2023-05-21T10:38:06;101599.22;;;16.67;49.45
20656;BME280;10487;53.320;8.672;2023-05-21T10:41:08;101597.97;;;16.71;49.55
20656;BME280;10487;53.320;8.672;2023-05-21T10:45:25;101590.31;;;16.76;49.29
20656;BME280;10487;53.320;8.672;2023-05-21T10:48:12;101589.66;;;16.84;49.52
20656;BME280;10487;53.320;8.672;2023-05-21T10:51:23;101590.03;;;16.90;49.52
20656;BME280;10487;53.320;8.672;2023-05-21T11:01:19;101582.56;;;17.04;49.36
20656;BME280;10487;53.320;8.672;2023-05-21T11:04:24;101582.03;;;17.10;49.40
20656;BME280;10487;53.320;8.672;2023-05-21T11:07:52;101586.59;;;17.19;49.23
20656;BME280;10487;53.320;8.672;2023-05-21T11:10:56;101585.78;;;17.28;49.05
20656;BME280;10487;53.320;8.672;2023-05-21T11:14:00;101583.25;;;17.36;49.37
20656;BME280;10487;53.320;8.672;2023-05-21T11:20:10;101572.25;;;17.58;49.35
20656;BME280;10487;53.320;8.672;2023-05-21T11:23:12;101567.06;;;17.66;48.87
20656;BME280;10487;53.320;8.672;2023-05-21T11:26:25;101576.03;;;17.76;48.88
20656;BME280;10487;53.320;8.672;2023-05-21T11:29:41;101574.78;;;17.90;49.19
20656;BME280;10487;53.320;8.672;2023-05-21T11:36:11;101571.66;;;18.13;48.97
20656;BME280;10487;53.320;8.672;2023-05-21T11:39:17;101565.25;;;18.24;48.94
20656;BME280;10487;53.320;8.672;2023-05-21T11:42:32;101563.53;;;18.33;48.55
20656;BME280;10487;53.320;8.672;2023-05-21T11:45:35;101557.31;;;18.42;48.86
20656;BME280;10487;53.320;8.672;2023-05-21T11:48:37;101560.53;;;18.55;48.96
20656;BME280;10487;53.320;8.672;2023-05-21T11:51:39;101567.19;;;18.70;48.53
20656;BME280;10487;53.320;8.672;2023-05-21T11:54:43;101564.88;;;18.84;48.44
20656;BME280;10487;53.320;8.672;2023-05-21T11:57:47;101556.59;;;18.96;48.53
20656;BME280;10487;53.320;8.672;2023-05-21T12:00:49;101553.44;;;19.10;48.51
20656;BME280;10487;53.320;8.672;2023-05-21T12:03:51;101552.56;;;19.19;48.45
20656;BME280;10487;53.320;8.672;2023-05-21T12:06:53;101550.78;;;19.27;48.36
20656;BME280;10487;53.320;8.672;2023-05-21T12:09:56;101552.59;;;19.36;48.27
20656;BME280;10487;53.320;8.672;2023-05-21T12:12:58;101558.09;;;19.44;48.54
20656;BME280;10487;53.320;8.672;2023-05-21T12:16:01;101547.38;;;19.53;48.12
20656;BME280;10487;53.320;8.672;2023-05-21T12:19:06;101540.34;;;19.60;48.49
20656;BME280;10487;53.320;8.672;2023-05-21T12:22:08;101546.00;;;19.66;48.41
20656;BME280;10487;53.320;8.672;2023-05-21T12:25:10;101534.28;;;19.75;48.18
20656;BME280;10487;53.320;8.672;2023-05-21T12:28:12;101537.94;;;19.84;48.22
20656;BME280;10487;53.320;8.672;2023-05-21T12:31:14;101531.59;;;19.93;48.19
20656;BME280;10487;53.320;8.672;2023-05-21T12:34:39;101536.78;;;20.04;48.02
20656;BME280;10487;53.320;8.672;2023-05-21T12:37:42;101537.22;;;20.17;47.86
20656;BME280;10487;53.320;8.672;2023-05-21T12:40:43;101531.88;;;20.25;47.86
20656;BME280;10487;53.320;8.672;2023-05-21T12:43:46;101533.09;;;20.31;47.80
20656;BME280;10487;53.320;8.672;2023-05-21T12:46:47;101527.75;;;20.39;47.82
20656;BME280;10487;53.320;8.672;2023-05-21T12:49:49;101524.97;;;20.48;47.67
20656;BME280;10487;53.320;8.672;2023-05-21T12:52:57;101523.00;;;20.58;47.78
20656;BME280;10487;53.320;8.672;2023-05-21T12:56:07;101524.59;;;20.69;47.64
20656;BME280;10487;53.320;8.672;2023-05-21T12:59:13;101525.53;;;20.78;47.47
20656;BME280;10487;53.320;8.672;2023-05-21T13:02:28;101521.47;;;20.82;47.46
20656;BME280;10487;53.320;8.672;2023-05-21T13:05:30;101515.00;;;20.83;47.38
20656;BME280;10487;53.320;8.672;2023-05-21T13:08:32;101517.41;;;20.86;47.26
20656;BME280;10487;53.320;8.672;2023-05-21T13:11:36;101519.81;;;20.89;47.04
20656;BME280;10487;53.320;8.672;2023-05-21T13:14:38;101507.28;;;20.96;47.39
20656;BME280;10487;53.320;8.672;2023-05-21T13:17:39;101514.78;;;21.02;47.44
20656;BME280;10487;53.320;8.672;2023-05-21T13:20:41;101507.34;;;21.04;47.39
20656;BME280;10487;53.320;8.672;2023-05-21T13:23:43;101502.59;;;21.06;47.35
20656;BME280;10487;53.320;8.672;2023-05-21T13:26:44;101499.28;;;21.12;47.24
20656;BME280;10487;53.320;8.672;2023-05-21T13:29:46;101503.03;;;21.19;47.01
20656;BME280;10487;53.320;8.672;2023-05-21T13:32:48;101492.53;;;21.24;47.08
20656;BME280;10487;53.320;8.672;2023-05-21T13:35:49;101496.78;;;21.26;46.89
20656;BME280;10487;53.320;8.672;2023-05-21T13:38:52;101491.84;;;21.30;47.03
20656;BME280;10487;53.320;8.672;2023-05-21T13:41:53;101508.00;;;21.31;47.23
20656;BME280;10487;53.320;8.672;2023-05-21T13:44:55;101496.63;;;21.36;46.89
20656;BME280;10487;53.320;8.672;2023-05-21T13:47:57;101504.28;;;21.41;46.90
20656;BME280;10487;53.320;8.672;2023-05-21T13:50:58;101501.91;;;21.46;46.73
20656;BME280;10487;53.320;8.672;2023-05-21T13:54:00;101506.84;;;21.50;46.65
20656;BME280;10487;53.320;8.672;2023-05-21T13:57:02;101489.03;;;21.56;46.65
20656;BME280;10487;53.320;8.672;2023-05-21T14:00:04;101498.88;;;21.65;46.58
20656;BME280;10487;53.320;8.672;2023-05-21T14:03:09;101490.94;;;21.71;46.69
20656;BME280;10487;53.320;8.672;2023-05-21T14:06:11;101491.81;;;21.80;46.33
20656;BME280;10487;53.320;8.672;2023-05-21T14:09:13;101490.97;;;21.87;46.27
20656;BME280;10487;53.320;8.672;2023-05-21T14:12:15;101484.56;;;21.96;46.42
20656;BME280;10487;53.320;8.672;2023-05-21T14:15:17;101483.19;;;22.01;46.07
20656;BME280;10487;53.320;8.672;2023-05-21T14:18:19;101492.69;;;22.05;46.07
20656;BME280;10487;53.320;8.672;2023-05-21T14:21:21;101491.50;;;22.07;45.99
20656;BME280;10487;53.320;8.672;2023-05-21T14:24:22;101479.44;;;22.10;46.02
20656;BME280;10487;53.320;8.672;2023-05-21T14:27:24;101482.81;;;22.12;45.82
20656;BME280;10487;53.320;8.672;2023-05-21T14:30:26;101480.81;;;22.14;45.63
20656;BME280;10487;53.320;8.672;2023-05-21T14:33:29;101483.34;;;22.15;45.83
20656;BME280;10487;53.320;8.672;2023-05-21T14:36:31;101474.00;;;22.18;45.81
20656;BME280;10487;53.320;8.672;2023-05-21T14:39:33;101481.63;;;22.22;45.53
20656;BME280;10487;53.320;8.672;2023-05-21T14:42:34;101476.19;;;22.22;45.62
20656;BME280;10487;53.320;8.672;2023-05-21T14:45:37;101471.44;;;22.24;45.52
20656;BME280;10487;53.320;8.672;2023-05-21T14:48:38;101472.81;;;22.28;45.36
20656;BME280;10487;53.320;8.672;2023-05-21T14:51:40;101474.50;;;22.29;45.61
20656;BME280;10487;53.320;8.672;2023-05-21T14:54:43;101466.69;;;22.26;45.72
20656;BME280;10487;53.320;8.672;2023-05-21T14:57:45;101461.25;;;22.26;45.52
20656;BME280;10487;53.320;8.672;2023-05-21T15:00:47;101471.94;;;22.28;45.60
20656;BME280;10487;53.320;8.672;2023-05-21T15:03:49;101463.78;;;22.28;45.47
20656;BME280;10487;53.320;8.672;2023-05-21T15:06:51;101465.50;;;22.29;45.08
20656;BME280;10487;53.320;8.672;2023-05-21T15:09:52;101460.41;;;22.34;45.32
20656;BME280;10487;53.320;8.672;2023-05-21T15:12:54;101459.22;;;22.36;45.43
20656;BME280;10487;53.320;8.672;2023-05-21T15:15:56;101455.34;;;22.39;45.27
20656;BME280;10487;53.320;8.672;2023-05-21T15:18:57;101451.03;;;22.44;45.10
20656;BME280;10487;53.320;8.672;2023-05-21T15:21:59;101449.50;;;22.50;45.37
20656;BME280;10487;53.320;8.672;2023-05-21T15:25:02;101437.25;;;22.54;45.36
20656;BME280;10487;53.320;8.672;2023-05-21T15:28:04;101438.28;;;22.61;45.17
20656;BME280;10487;53.320;8.672;2023-05-21T15:31:05;101439.63;;;22.65;45.18
20656;BME280;10487;53.320;8.672;2023-05-21T15:34:07;101436.03;;;22.65;44.80
20656;BME280;10487;53.320;8.672;2023-05-21T15:37:09;101438.09;;;22.63;45.15
20656;BME280;10487;53.320;8.672;2023-05-21T15:40:11;101428.41;;;22.60;44.94
20656;BME280;10487;53.320;8.672;2023-05-21T15:43:13;101418.72;;;22.57;44.95
20656;BME280;10487;53.320;8.672;2023-05-21T15:46:14;101418.91;;;22.56;45.11
20656;BME280;10487;53.320;8.672;2023-05-21T15:49:16;101415.88;;;22.51;45.07
20656;BME280;10487;53.320;8.672;2023-05-21T15:52:18;101410.09;;;22.46;44.68
20656;BME280;10487;53.320;8.672;2023-05-21T15:55:20;101401.63;;;22.41;45.03
20656;BME280;10487;53.320;8.672;2023-05-21T15:58:22;101408.25;;;22.38;44.94
20656;BME280;10487;53.320;8.672;2023-05-21T16:01:24;101407.56;;;22.36;44.68
20656;BME280;10487;53.320;8.672;2023-05-21T16:04:27;101406.03;;;22.34;45.07
20656;BME280;10487;53.320;8.672;2023-05-21T16:07:28;101401.41;;;22.34;45.08
20656;BME280;10487;53.320;8.672;2023-05-21T16:10:30;101403.47;;;22.32;44.72
20656;BME280;10487;53.320;8.672;2023-05-21T16:13:32;101408.06;;;22.32;45.08